Terminal Aerodrome Forecast
Issued by NWS

Home | Current Version | Previous Version | Graphics & Text | Print | Product List | Glossary On
Versions: 1 2 3 4 5 6 7 8 9 10 11 12 13 14 15 16 17 18 19 20 21
000
FTUS43 KABR 261100
TAFATY
TAF
KATY 261124Z 2612/2712 01020G26KT 4SM -SN BLSN OVC035
      TEMPO 2612/2614 2SM -SN BLSN
     FM261400 36016G25KT P6SM OVC025
     FM262000 34010KT P6SM BKN025
     FM270200 VRB05KT P6SM BKN250=

USA.gov is the U.S. government's official web portal to all federal, state and local government web resources and services.